THY12 KJFK-LTFM
Flight info
| Callsign | THY12 |
|---|---|
| Flight time | N/A |
| Altitude | 33000 |
| Route | BETTE DCT ACK DCT KANNI N257B NICSO/M083F350 DCT 48N050W 50N040W 51N030W 51N020W DCT DINIM DCT ELSOX DCT GAPLI/N0482F350 DCT LIZAD/N0474F370 DCT JSY DCT TURDU DCT TADUP DCT TEPRI UN491 POGZI DCT GELTA DCT LUVAL DCT BEGAR DCT TRA DCT GAMSA DCT GEDSO DCT VEKEN DCT NISVA L614 DEDIN DCT AYTEK |
| Aircraft | B77W/H-SDE1E2E3FGHIJ2J3J4J5M1RWXY/LB1D1 |
Departure
| Time | 2026-05-04 05:01 |
|---|---|
| Airport | John F. Kennedy International Airport (KJFK) |
Arrival
| Time | N/A |
|---|---|
| Airport | İstanbul Airport (LTFM) |
| Time | Latitude | Longitude | Altitude | Speed | Heading |
|---|---|---|---|---|---|
| 2026-05-04 03:56 | 40.64207 | -73.79076 | 31 ft | 0 kts | 336° |
| 2026-05-04 04:43 | 40.64195 | -73.79069 | 30 ft | 1 kts | 336° |
| 2026-05-04 04:43 | 40.64177 | -73.79055 | 29 ft | 4 kts | 290° |
| 2026-05-04 04:43 | 40.64176 | -73.79034 | 28 ft | 2 kts | 248° |
| 2026-05-04 04:43 | 40.64163 | -73.79041 | 27 ft | 4 kts | 194° |
| 2026-05-04 04:44 | 40.64139 | -73.79054 | 30 ft | 4 kts | 214° |
| 2026-05-04 04:44 | 40.64124 | -73.79073 | 29 ft | 4 kts | 224° |
| 2026-05-04 04:44 | 40.64104 | -73.79098 | 29 ft | 4 kts | 224° |
| 2026-05-04 04:44 | 40.64085 | -73.79122 | 29 ft | 4 kts | 224° |
| 2026-05-04 04:45 | 40.64066 | -73.79147 | 29 ft | 4 kts | 224° |
| 2026-05-04 04:45 | 40.64046 | -73.79172 | 29 ft | 4 kts | 224° |
| 2026-05-04 04:45 | 40.64033 | -73.79189 | 29 ft | 0 kts | 224° |
| 2026-05-04 04:53 | 40.64029 | -73.79195 | 29 ft | 3 kts | 224° |
| 2026-05-04 04:53 | 40.64003 | -73.79226 | 28 ft | 7 kts | 221° |
| 2026-05-04 04:53 | 40.63962 | -73.79233 | 30 ft | 5 kts | 150° |
| 2026-05-04 04:53 | 40.63930 | -73.79190 | 29 ft | 8 kts | 130° |
| 2026-05-04 04:54 | 40.63898 | -73.79118 | 27 ft | 10 kts | 120° |
| 2026-05-04 04:54 | 40.63859 | -73.79031 | 28 ft | 12 kts | 119° |
| 2026-05-04 04:54 | 40.63815 | -73.78923 | 29 ft | 15 kts | 118° |
| 2026-05-04 04:54 | 40.63759 | -73.78807 | 32 ft | 15 kts | 126° |
| 2026-05-04 04:55 | 40.63700 | -73.78692 | 34 ft | 15 kts | 119° |
| 2026-05-04 04:55 | 40.63649 | -73.78570 | 33 ft | 15 kts | 119° |
| 2026-05-04 04:55 | 40.63596 | -73.78447 | 34 ft | 15 kts | 120° |
| 2026-05-04 04:55 | 40.63542 | -73.78326 | 31 ft | 15 kts | 122° |
| 2026-05-04 04:56 | 40.63484 | -73.78209 | 30 ft | 15 kts | 123° |
| 2026-05-04 04:56 | 40.63431 | -73.78090 | 29 ft | 12 kts | 120° |
| 2026-05-04 04:56 | 40.63398 | -73.78014 | 28 ft | 9 kts | 119° |
| 2026-05-04 04:56 | 40.63366 | -73.77938 | 29 ft | 9 kts | 118° |
| 2026-05-04 04:57 | 40.63335 | -73.77863 | 31 ft | 9 kts | 120° |
| 2026-05-04 04:57 | 40.63301 | -73.77788 | 32 ft | 9 kts | 120° |
| 2026-05-04 04:57 | 40.63268 | -73.77713 | 32 ft | 9 kts | 120° |
| 2026-05-04 04:57 | 40.63234 | -73.77639 | 33 ft | 10 kts | 122° |
| 2026-05-04 04:58 | 40.63179 | -73.77522 | 35 ft | 20 kts | 121° |
| 2026-05-04 04:58 | 40.63108 | -73.77367 | 32 ft | 11 kts | 120° |
| 2026-05-04 04:58 | 40.63079 | -73.77301 | 32 ft | 6 kts | 120° |
| 2026-05-04 04:58 | 40.63057 | -73.77252 | 32 ft | 6 kts | 120° |
| 2026-05-04 04:59 | 40.63031 | -73.77194 | 31 ft | 9 kts | 121° |
| 2026-05-04 04:59 | 40.62991 | -73.77105 | 28 ft | 13 kts | 122° |
| 2026-05-04 04:59 | 40.62913 | -73.77098 | 28 ft | 13 kts | 210° |
| 2026-05-04 04:59 | 40.62840 | -73.77166 | 28 ft | 13 kts | 230° |
| 2026-05-04 05:00 | 40.62842 | -73.77269 | 29 ft | 8 kts | 297° |
| 2026-05-04 05:00 | 40.62855 | -73.77298 | 30 ft | 0 kts | 300° |
| 2026-05-04 05:00 | 40.62970 | -73.77560 | 33 ft | 65 kts | 300° |
| 2026-05-04 05:01 | 40.63316 | -73.78324 | 27 ft | 128 kts | 300° |
| 2026-05-04 05:01 | 40.63875 | -73.79527 | 37 ft | 176 kts | 299° |
| 2026-05-04 05:01 | 40.64515 | -73.80957 | 394 ft | 186 kts | 296° |
| 2026-05-04 05:01 | 40.65139 | -73.82480 | 969 ft | 185 kts | 291° |
| 2026-05-04 05:02 | 40.65308 | -73.83982 | 1841 ft | 158 kts | 257° |
| 2026-05-04 05:02 | 40.65103 | -73.84906 | 2111 ft | 164 kts | 259° |
| 2026-05-04 05:02 | 40.64734 | -73.86402 | 2209 ft | 183 kts | 237° |
| 2026-05-04 05:02 | 40.63579 | -73.87331 | 2398 ft | 216 kts | 198° |
| 2026-05-04 05:03 | 40.61978 | -73.87187 | 2612 ft | 249 kts | 165° |
| 2026-05-04 05:03 | 40.60498 | -73.85870 | 3064 ft | 270 kts | 134° |
| 2026-05-04 05:04 | 40.60275 | -73.78714 | 4843 ft | 279 kts | 47° |
| 2026-05-04 05:04 | 40.61614 | -73.76839 | 5301 ft | 290 kts | 39° |
| 2026-05-04 05:04 | 40.63127 | -73.74974 | 5724 ft | 303 kts | 38° |
| 2026-05-04 05:06 | 40.74340 | -73.61343 | 10730 ft | 325 kts | 37° |
| 2026-05-04 05:06 | 40.76020 | -73.59297 | 11020 ft | 335 kts | 37° |
| 2026-05-04 05:06 | 40.77811 | -73.57140 | 11020 ft | 362 kts | 37° |
| 2026-05-04 05:07 | 40.79716 | -73.54869 | 10992 ft | 372 kts | 37° |
| 2026-05-04 05:07 | 40.81647 | -73.52570 | 10992 ft | 375 kts | 37° |
| 2026-05-04 05:07 | 40.83581 | -73.50263 | 10975 ft | 374 kts | 37° |
| 2026-05-04 05:09 | 40.99216 | -73.31626 | 12258 ft | 387 kts | 37° |
| 2026-05-04 05:09 | 41.01232 | -73.29237 | 13090 ft | 392 kts | 37° |
| 2026-05-04 05:10 | 41.03277 | -73.26814 | 13864 ft | 399 kts | 37° |
| 2026-05-04 05:10 | 41.05353 | -73.24360 | 13971 ft | 400 kts | 37° |
| 2026-05-04 05:10 | 41.07429 | -73.21906 | 13983 ft | 400 kts | 37° |
| 2026-05-04 05:10 | 41.09505 | -73.19450 | 13988 ft | 400 kts | 37° |
| 2026-05-04 05:11 | 41.11557 | -73.17025 | 13985 ft | 401 kts | 37° |
| 2026-05-04 05:11 | 41.13672 | -73.14528 | 14179 ft | 404 kts | 37° |
| 2026-05-04 05:11 | 41.15787 | -73.12034 | 14934 ft | 408 kts | 37° |
| 2026-05-04 05:11 | 41.17915 | -73.09517 | 15744 ft | 411 kts | 37° |
| 2026-05-04 05:12 | 41.20060 | -73.06971 | 16482 ft | 416 kts | 37° |
| 2026-05-04 05:12 | 41.22231 | -73.04390 | 17174 ft | 422 kts | 37° |
| 2026-05-04 05:12 | 41.24430 | -73.01770 | 17860 ft | 428 kts | 37° |
| 2026-05-04 05:12 | 41.26637 | -72.99140 | 17975 ft | 434 kts | 37° |
| 2026-05-04 05:13 | 41.28879 | -72.96463 | 17994 ft | 433 kts | 37° |
| 2026-05-04 05:13 | 41.31128 | -72.93774 | 18588 ft | 435 kts | 37° |
| 2026-05-04 05:13 | 41.33377 | -72.91078 | 19411 ft | 435 kts | 37° |
| 2026-05-04 05:13 | 41.35625 | -72.88369 | 20127 ft | 437 kts | 37° |
| 2026-05-04 05:14 | 41.37890 | -72.85633 | 20703 ft | 443 kts | 37° |
| 2026-05-04 05:14 | 41.40186 | -72.82859 | 21271 ft | 448 kts | 37° |
| 2026-05-04 05:14 | 41.42506 | -72.80056 | 21853 ft | 453 kts | 37° |
| 2026-05-04 05:14 | 41.44848 | -72.77224 | 22443 ft | 456 kts | 37° |
| 2026-05-04 05:15 | 41.47212 | -72.74367 | 23036 ft | 460 kts | 37° |
| 2026-05-04 05:15 | 41.49595 | -72.71486 | 23599 ft | 464 kts | 37° |
| 2026-05-04 05:15 | 41.51999 | -72.68582 | 24072 ft | 468 kts | 37° |
| 2026-05-04 05:15 | 41.54477 | -72.65767 | 24548 ft | 468 kts | 33° |
| 2026-05-04 05:16 | 41.57027 | -72.63045 | 25033 ft | 471 kts | 34° |
| 2026-05-04 05:16 | 41.59534 | -72.60206 | 25531 ft | 475 kts | 36° |
| 2026-05-04 05:16 | 41.61987 | -72.57214 | 25978 ft | 482 kts | 40° |
| 2026-05-04 05:16 | 41.64268 | -72.53829 | 26049 ft | 498 kts | 46° |
| 2026-05-04 05:17 | 41.66340 | -72.50044 | 26141 ft | 512 kts | 53° |
| 2026-05-04 05:17 | 41.68196 | -72.45934 | 26378 ft | 518 kts | 55° |
| 2026-05-04 05:17 | 41.70024 | -72.41765 | 26712 ft | 521 kts | 56° |
| 2026-05-04 05:17 | 41.71860 | -72.37578 | 27056 ft | 523 kts | 56° |
| 2026-05-04 05:18 | 41.73712 | -72.33382 | 27396 ft | 524 kts | 55° |
| 2026-05-04 05:18 | 41.75579 | -72.29184 | 27775 ft | 524 kts | 55° |
| 2026-05-04 05:18 | 41.77447 | -72.25000 | 28255 ft | 522 kts | 55° |
| 2026-05-04 05:18 | 41.79313 | -72.20829 | 28723 ft | 521 kts | 55° |
| 2026-05-04 05:19 | 41.81173 | -72.16671 | 29249 ft | 519 kts | 55° |
| 2026-05-04 05:19 | 41.83015 | -72.12541 | 29977 ft | 513 kts | 54° |
| 2026-05-04 05:19 | 41.84853 | -72.08420 | 30155 ft | 518 kts | 55° |
| 2026-05-04 05:19 | 41.86710 | -72.04251 | 30343 ft | 520 kts | 55° |
| 2026-05-04 05:20 | 41.88557 | -72.00092 | 30787 ft | 517 kts | 55° |
| 2026-05-04 05:20 | 41.90391 | -71.95953 | 31236 ft | 515 kts | 55° |
| 2026-05-04 05:20 | 41.92192 | -71.91888 | 31621 ft | 514 kts | 55° |
| 2026-05-04 05:20 | 41.94025 | -71.87759 | 31892 ft | 516 kts | 54° |
| 2026-05-04 05:21 | 41.96023 | -71.83754 | 32086 ft | 516 kts | 49° |
| 2026-05-04 05:21 | 41.98327 | -71.80002 | 32452 ft | 511 kts | 43° |
| 2026-05-04 05:21 | 42.00735 | -71.76498 | 32828 ft | 510 kts | 43° |
| 2026-05-04 05:21 | 42.03132 | -71.73036 | 32884 ft | 515 kts | 43° |
| 2026-05-04 05:22 | 42.08016 | -71.65942 | 32934 ft | 515 kts | 43° |
| 2026-05-04 05:22 | 42.12817 | -71.58870 | 32940 ft | 510 kts | 43° |
| 2026-05-04 05:23 | 42.17589 | -71.51790 | 32935 ft | 510 kts | 44° |
| 2026-05-04 05:23 | 42.22356 | -71.44698 | 32930 ft | 510 kts | 44° |
| 2026-05-04 05:24 | 42.27125 | -71.37588 | 32924 ft | 511 kts | 44° |
| 2026-05-04 05:24 | 42.31895 | -71.30460 | 32921 ft | 512 kts | 44° |
| 2026-05-04 05:25 | 42.36662 | -71.23320 | 32933 ft | 511 kts | 44° |
| 2026-05-04 05:25 | 42.41417 | -71.16180 | 32911 ft | 510 kts | 44° |
| 2026-05-04 05:26 | 42.46163 | -71.09037 | 32932 ft | 510 kts | 44° |
| 2026-05-04 05:26 | 42.50898 | -71.01893 | 32915 ft | 509 kts | 44° |
| 2026-05-04 05:28 | 42.69742 | -70.73290 | 32910 ft | 508 kts | 44° |
| 2026-05-04 05:29 | 42.74442 | -70.66110 | 32900 ft | 509 kts | 45° |
| 2026-05-04 05:29 | 42.79145 | -70.58909 | 32898 ft | 509 kts | 45° |
| 2026-05-04 05:31 | 42.97860 | -70.30075 | 32881 ft | 507 kts | 45° |
| 2026-05-04 05:32 | 43.02518 | -70.22852 | 32880 ft | 506 kts | 45° |
| 2026-05-04 05:33 | 43.09480 | -70.12026 | 32876 ft | 505 kts | 45° |
| 2026-05-04 05:33 | 43.14117 | -70.04794 | 32879 ft | 505 kts | 45° |
| 2026-05-04 05:34 | 43.18753 | -69.97544 | 32873 ft | 506 kts | 45° |
| 2026-05-04 05:34 | 43.23383 | -69.90284 | 32880 ft | 506 kts | 46° |
| 2026-05-04 05:35 | 43.28015 | -69.83004 | 32869 ft | 506 kts | 46° |
| 2026-05-04 05:35 | 43.32642 | -69.75713 | 32877 ft | 507 kts | 46° |
| 2026-05-04 05:36 | 43.37272 | -69.68399 | 32872 ft | 507 kts | 46° |
| 2026-05-04 05:36 | 43.41900 | -69.61070 | 32860 ft | 508 kts | 46° |
| 2026-05-04 05:37 | 43.46527 | -69.53723 | 32859 ft | 508 kts | 46° |
| 2026-05-04 05:37 | 43.51150 | -69.46363 | 32877 ft | 508 kts | 46° |
| 2026-05-04 05:38 | 43.58073 | -69.35306 | 32850 ft | 507 kts | 46° |
| 2026-05-04 05:38 | 43.62639 | -69.27992 | 32846 ft | 506 kts | 46° |
| 2026-05-04 05:39 | 43.69514 | -69.16943 | 32839 ft | 505 kts | 46° |
| 2026-05-04 05:40 | 43.76365 | -69.05890 | 32836 ft | 504 kts | 46° |
| 2026-05-04 05:40 | 43.80925 | -68.98513 | 32844 ft | 504 kts | 47° |
| 2026-05-04 05:41 | 43.85477 | -68.91126 | 32836 ft | 504 kts | 47° |
| 2026-05-04 05:41 | 43.90029 | -68.83718 | 32828 ft | 505 kts | 47° |
| 2026-05-04 05:42 | 43.94576 | -68.76303 | 32824 ft | 505 kts | 47° |
| 2026-05-04 05:42 | 43.99119 | -68.68874 | 32822 ft | 505 kts | 47° |
| 2026-05-04 05:43 | 44.03657 | -68.61435 | 32809 ft | 505 kts | 47° |
| 2026-05-04 05:45 | 44.21768 | -68.31547 | 32791 ft | 504 kts | 48° |
| 2026-05-04 05:47 | 44.39765 | -68.01536 | 32771 ft | 504 kts | 48° |
| 2026-05-04 05:47 | 44.44251 | -67.94006 | 32770 ft | 504 kts | 49° |
| 2026-05-04 05:48 | 44.48730 | -67.86466 | 32753 ft | 503 kts | 49° |
| 2026-05-04 05:48 | 44.53204 | -67.78917 | 32738 ft | 503 kts | 49° |
| 2026-05-04 05:49 | 44.57668 | -67.71364 | 32738 ft | 503 kts | 49° |
| 2026-05-04 05:49 | 44.61375 | -67.65076 | 32731 ft | 503 kts | 49° |
| 2026-05-04 05:51 | 44.79175 | -67.34690 | 32713 ft | 503 kts | 49° |
| 2026-05-04 05:52 | 44.83611 | -67.27065 | 32708 ft | 503 kts | 49° |
| 2026-05-04 05:52 | 44.88040 | -67.19435 | 32717 ft | 503 kts | 50° |
| 2026-05-04 05:54 | 45.05542 | -66.88824 | 32681 ft | 501 kts | 50° |
| 2026-05-04 05:55 | 45.09905 | -66.81130 | 32656 ft | 501 kts | 50° |
| 2026-05-04 05:55 | 45.14267 | -66.73418 | 32649 ft | 502 kts | 50° |
| 2026-05-04 05:56 | 45.18626 | -66.65691 | 32650 ft | 503 kts | 50° |
| 2026-05-04 05:56 | 45.22991 | -66.57932 | 32643 ft | 504 kts | 50° |
| 2026-05-04 05:57 | 45.27357 | -66.50151 | 32616 ft | 504 kts | 51° |
| 2026-05-04 05:57 | 45.31717 | -66.42358 | 32620 ft | 503 kts | 50° |
| 2026-05-04 05:58 | 45.36062 | -66.34566 | 32608 ft | 503 kts | 51° |
| 2026-05-04 05:58 | 45.40400 | -66.26774 | 32597 ft | 502 kts | 50° |
| 2026-05-04 05:59 | 45.44729 | -66.18971 | 32587 ft | 502 kts | 51° |
| 2026-05-04 05:59 | 45.49051 | -66.11157 | 32595 ft | 503 kts | 51° |
| 2026-05-04 06:00 | 45.53376 | -66.03319 | 32588 ft | 503 kts | 51° |
| 2026-05-04 06:00 | 45.57691 | -65.95480 | 32584 ft | 502 kts | 51° |
| 2026-05-04 06:01 | 45.61968 | -65.87687 | 32587 ft | 501 kts | 51° |
| 2026-05-04 06:03 | 45.79202 | -65.56056 | 32555 ft | 500 kts | 51° |
| 2026-05-04 06:05 | 45.98486 | -65.20239 | 32525 ft | 503 kts | 52° |
| 2026-05-04 06:06 | 46.02739 | -65.12279 | 32489 ft | 501 kts | 52° |
| 2026-05-04 06:06 | 46.06978 | -65.04323 | 32511 ft | 500 kts | 52° |
| 2026-05-04 06:07 | 46.11212 | -64.96354 | 32472 ft | 502 kts | 52° |
| 2026-05-04 06:07 | 46.15452 | -64.88351 | 32497 ft | 501 kts | 52° |
| 2026-05-04 06:08 | 46.19664 | -64.80372 | 32452 ft | 498 kts | 52° |
| 2026-05-04 06:08 | 46.23853 | -64.72417 | 32470 ft | 496 kts | 52° |
| 2026-05-04 06:09 | 46.27997 | -64.64529 | 32440 ft | 496 kts | 52° |
| 2026-05-04 06:11 | 46.44733 | -64.32435 | 32390 ft | 494 kts | 52° |
| 2026-05-04 06:13 | 46.61331 | -64.00236 | 32327 ft | 506 kts | 53° |
| 2026-05-04 06:14 | 46.73749 | -63.75901 | 32282 ft | 493 kts | 54° |
| 2026-05-04 06:14 | 46.75790 | -63.71879 | 32302 ft | 494 kts | 54° |
| 2026-05-04 06:15 | 46.79894 | -63.63777 | 32291 ft | 498 kts | 54° |
| 2026-05-04 06:15 | 46.84020 | -63.55609 | 32261 ft | 500 kts | 55° |
| 2026-05-04 06:16 | 46.88127 | -63.47453 | 32255 ft | 495 kts | 55° |
| 2026-05-04 06:16 | 46.92182 | -63.39379 | 32224 ft | 491 kts | 54° |
| 2026-05-04 06:17 | 46.96233 | -63.31287 | 32228 ft | 495 kts | 56° |
| 2026-05-04 06:17 | 47.00315 | -63.23110 | 32237 ft | 499 kts | 55° |
| 2026-05-04 06:18 | 47.04387 | -63.14923 | 32211 ft | 502 kts | 56° |
| 2026-05-04 06:20 | 47.20659 | -62.82001 | 32168 ft | 494 kts | 57° |
| 2026-05-04 06:21 | 47.30726 | -62.61418 | 32140 ft | 496 kts | 57° |
| 2026-05-04 06:22 | 47.34743 | -62.53165 | 32129 ft | 494 kts | 58° |
| 2026-05-04 06:25 | 47.62487 | -61.95474 | 32130 ft | 494 kts | 58° |
| 2026-05-04 06:26 | 47.66425 | -61.87191 | 32112 ft | 495 kts | 58° |
| 2026-05-04 06:26 | 47.70386 | -61.78832 | 32114 ft | 495 kts | 58° |
| 2026-05-04 06:27 | 47.80237 | -61.57928 | 32116 ft | 492 kts | 58° |
| 2026-05-04 06:28 | 47.84148 | -61.49583 | 32117 ft | 491 kts | 59° |
| 2026-05-04 06:28 | 47.88046 | -61.41241 | 32122 ft | 490 kts | 59° |
| 2026-05-04 06:29 | 47.91933 | -61.32903 | 32121 ft | 489 kts | 59° |
| 2026-05-04 06:29 | 47.95804 | -61.24564 | 32136 ft | 489 kts | 59° |
| 2026-05-04 06:30 | 47.99673 | -61.16204 | 32145 ft | 490 kts | 59° |
| 2026-05-04 06:30 | 48.03552 | -61.07799 | 32139 ft | 492 kts | 59° |
| 2026-05-04 06:31 | 48.07436 | -60.99359 | 32136 ft | 493 kts | 59° |
| 2026-05-04 06:31 | 48.11317 | -60.90901 | 32152 ft | 493 kts | 59° |
| 2026-05-04 06:33 | 48.26779 | -60.56933 | 32169 ft | 494 kts | 59° |
| 2026-05-04 06:34 | 48.30640 | -60.48383 | 32184 ft | 495 kts | 59° |
| 2026-05-04 06:34 | 48.34476 | -60.39861 | 32168 ft | 496 kts | 59° |
| 2026-05-04 06:36 | 48.49835 | -60.05474 | 32156 ft | 496 kts | 61° |
| 2026-05-04 06:37 | 48.53655 | -59.96859 | 32186 ft | 493 kts | 62° |
| 2026-05-04 06:37 | 48.57448 | -59.88272 | 32204 ft | 490 kts | 62° |
| 2026-05-04 06:38 | 48.61216 | -59.79715 | 32205 ft | 489 kts | 62° |
| 2026-05-04 06:40 | 48.75470 | -59.47089 | 32221 ft | 482 kts | 63° |
| 2026-05-04 06:40 | 48.79154 | -59.38591 | 32230 ft | 482 kts | 63° |
| 2026-05-04 06:41 | 48.82830 | -59.30091 | 32224 ft | 481 kts | 64° |
| 2026-05-04 06:41 | 48.86493 | -59.21585 | 32231 ft | 482 kts | 64° |
| 2026-05-04 06:42 | 48.90162 | -59.13039 | 32250 ft | 484 kts | 64° |
| 2026-05-04 06:44 | 49.04845 | -58.78586 | 32261 ft | 483 kts | 65° |
| 2026-05-04 06:44 | 49.08479 | -58.69988 | 32265 ft | 482 kts | 65° |
| 2026-05-04 06:45 | 49.12096 | -58.61402 | 32269 ft | 481 kts | 65° |
| 2026-05-04 06:45 | 49.15702 | -58.52815 | 32277 ft | 480 kts | 65° |
| 2026-05-04 06:46 | 49.19298 | -58.44223 | 32275 ft | 480 kts | 65° |
| 2026-05-04 06:46 | 49.22888 | -58.35617 | 32274 ft | 480 kts | 65° |
| 2026-05-04 06:48 | 49.37183 | -58.01063 | 32318 ft | 487 kts | 65° |
| 2026-05-04 06:50 | 49.51683 | -57.65572 | 32380 ft | 490 kts | 65° |
| 2026-05-04 06:51 | 49.55288 | -57.56680 | 32344 ft | 488 kts | 65° |
| 2026-05-04 06:51 | 49.58862 | -57.47828 | 32385 ft | 486 kts | 65° |
| 2026-05-04 06:52 | 49.62424 | -57.38973 | 32416 ft | 486 kts | 65° |
| 2026-05-04 06:52 | 49.65978 | -57.30104 | 32432 ft | 486 kts | 66° |
| 2026-05-04 06:53 | 49.69531 | -57.21211 | 32398 ft | 487 kts | 65° |
| 2026-05-04 06:53 | 49.73079 | -57.12303 | 32461 ft | 487 kts | 65° |
| 2026-05-04 06:54 | 49.76626 | -57.03362 | 32479 ft | 489 kts | 66° |
| 2026-05-04 06:54 | 49.80186 | -56.94360 | 32477 ft | 491 kts | 66° |
| 2026-05-04 06:55 | 49.83754 | -56.85306 | 32430 ft | 494 kts | 66° |
| 2026-05-04 06:55 | 49.87322 | -56.76229 | 32486 ft | 493 kts | 66° |
| 2026-05-04 06:57 | 50.01469 | -56.39914 | 32517 ft | 489 kts | 66° |
| 2026-05-04 06:58 | 50.04968 | -56.30851 | 32515 ft | 488 kts | 66° |
| 2026-05-04 06:58 | 50.08453 | -56.21791 | 32534 ft | 487 kts | 66° |
| 2026-05-04 06:59 | 50.11930 | -56.12721 | 32521 ft | 488 kts | 67° |
| 2026-05-04 06:59 | 50.15398 | -56.03641 | 32533 ft | 488 kts | 67° |
| 2026-05-04 07:01 | 50.29286 | -55.66965 | 32548 ft | 495 kts | 66° |
| 2026-05-04 07:02 | 50.32779 | -55.57662 | 32564 ft | 496 kts | 66° |
| 2026-05-04 07:02 | 50.36270 | -55.48332 | 32570 ft | 496 kts | 67° |
| 2026-05-04 07:03 | 50.39749 | -55.39001 | 32570 ft | 496 kts | 67° |
| 2026-05-04 07:03 | 50.43211 | -55.29681 | 32560 ft | 494 kts | 67° |
| 2026-05-04 07:04 | 50.46652 | -55.20380 | 32564 ft | 492 kts | 67° |
| 2026-05-04 07:04 | 50.50077 | -55.11091 | 32580 ft | 491 kts | 67° |
| 2026-05-04 07:05 | 50.53487 | -55.01805 | 32582 ft | 490 kts | 67° |
| 2026-05-04 07:05 | 50.56887 | -54.92513 | 32583 ft | 490 kts | 67° |
| 2026-05-04 07:06 | 50.61973 | -54.78554 | 32599 ft | 490 kts | 68° |
| 2026-05-04 07:07 | 50.65355 | -54.69228 | 32593 ft | 490 kts | 68° |
| 2026-05-04 07:09 | 50.78842 | -54.31700 | 32615 ft | 493 kts | 68° |
| 2026-05-04 07:09 | 50.82212 | -54.22238 | 32624 ft | 494 kts | 68° |
| 2026-05-04 07:10 | 50.85576 | -54.12756 | 32593 ft | 494 kts | 67° |
| 2026-05-04 07:12 | 50.98972 | -53.74645 | 32611 ft | 495 kts | 67° |
| 2026-05-04 07:12 | 51.02299 | -53.65088 | 32646 ft | 494 kts | 67° |
| 2026-05-04 07:13 | 51.05615 | -53.55531 | 32630 ft | 494 kts | 67° |
| 2026-05-04 07:13 | 51.08922 | -53.45959 | 32665 ft | 494 kts | 67° |
| 2026-05-04 07:14 | 51.17109 | -53.21958 | 32674 ft | 493 kts | 70° |
| 2026-05-04 07:15 | 51.19888 | -53.12003 | 32686 ft | 491 kts | 72° |
| 2026-05-04 07:15 | 51.22592 | -53.01983 | 32699 ft | 492 kts | 72° |
| 2026-05-04 07:16 | 51.25308 | -52.91945 | 32691 ft | 493 kts | 72° |
| 2026-05-04 07:16 | 51.28034 | -52.81908 | 32693 ft | 493 kts | 72° |
| 2026-05-04 07:17 | 51.30760 | -52.71853 | 32709 ft | 493 kts | 72° |
| 2026-05-04 07:17 | 51.33480 | -52.61774 | 32712 ft | 494 kts | 72° |
| 2026-05-04 07:18 | 51.36192 | -52.51674 | 32718 ft | 494 kts | 72° |
| 2026-05-04 07:18 | 51.38895 | -52.41562 | 32697 ft | 494 kts | 72° |
| 2026-05-04 07:19 | 51.41594 | -52.31421 | 32725 ft | 496 kts | 72° |
| 2026-05-04 07:19 | 51.44297 | -52.21218 | 32732 ft | 498 kts | 72° |
| 2026-05-04 07:20 | 51.46998 | -52.10979 | 32736 ft | 499 kts | 72° |
| 2026-05-04 07:20 | 51.49699 | -52.00697 | 32733 ft | 500 kts | 72° |
| 2026-05-04 07:22 | 51.60403 | -51.59478 | 32758 ft | 501 kts | 71° |
| 2026-05-04 07:23 | 51.63063 | -51.49112 | 32742 ft | 501 kts | 71° |
| 2026-05-04 07:23 | 51.65732 | -51.38667 | 32764 ft | 501 kts | 71° |
| 2026-05-04 07:24 | 51.68357 | -51.28349 | 32766 ft | 502 kts | 71° |
| 2026-05-04 07:24 | 51.70994 | -51.17932 | 32780 ft | 502 kts | 71° |
| 2026-05-04 07:26 | 51.81476 | -50.76040 | 32796 ft | 504 kts | 71° |
| 2026-05-04 07:27 | 51.83640 | -50.67294 | 32802 ft | 504 kts | 72° |
| 2026-05-04 07:27 | 51.86236 | -50.56754 | 32808 ft | 504 kts | 72° |
| 2026-05-04 07:28 | 51.88823 | -50.46199 | 32817 ft | 504 kts | 72° |
| 2026-05-04 07:28 | 51.91398 | -50.35643 | 32787 ft | 504 kts | 72° |
| 2026-05-04 07:29 | 51.93961 | -50.25083 | 32813 ft | 504 kts | 72° |
| 2026-05-04 07:29 | 51.96516 | -50.14508 | 32816 ft | 504 kts | 72° |
| 2026-05-04 07:30 | 51.99065 | -50.03907 | 32820 ft | 505 kts | 72° |
| 2026-05-04 07:30 | 52.01651 | -49.93280 | 32829 ft | 507 kts | 71° |
| 2026-05-04 07:31 | 52.04331 | -49.82673 | 32840 ft | 508 kts | 71° |
| 2026-05-04 07:33 | 52.14973 | -49.40018 | 32861 ft | 508 kts | 71° |
| 2026-05-04 07:33 | 52.17596 | -49.29335 | 32862 ft | 508 kts | 71° |
| 2026-05-04 07:34 | 52.20209 | -49.18645 | 32856 ft | 508 kts | 71° |
| 2026-05-04 07:34 | 52.22813 | -49.07937 | 32876 ft | 509 kts | 70° |
| 2026-05-04 07:35 | 52.25416 | -48.97182 | 32884 ft | 510 kts | 70° |
| 2026-05-04 07:35 | 52.28016 | -48.86385 | 32905 ft | 512 kts | 70° |
| 2026-05-04 07:36 | 52.30613 | -48.75551 | 32900 ft | 513 kts | 70° |
| 2026-05-04 07:38 | 52.40922 | -48.31992 | 32920 ft | 514 kts | 70° |
| 2026-05-04 07:38 | 52.43475 | -48.21063 | 32932 ft | 513 kts | 70° |
| 2026-05-04 07:39 | 52.46016 | -48.10128 | 32943 ft | 513 kts | 70° |
| 2026-05-04 07:39 | 52.48550 | -47.99178 | 32937 ft | 513 kts | 69° |
| 2026-05-04 07:40 | 52.51073 | -47.88214 | 32936 ft | 514 kts | 70° |
| 2026-05-04 07:40 | 52.53587 | -47.77231 | 32967 ft | 514 kts | 70° |
| 2026-05-04 07:41 | 52.56076 | -47.66298 | 32970 ft | 514 kts | 69° |
| 2026-05-04 07:41 | 52.58572 | -47.55279 | 32971 ft | 515 kts | 69° |
| 2026-05-04 07:42 | 52.61061 | -47.44240 | 32968 ft | 515 kts | 69° |
| 2026-05-04 07:42 | 52.63538 | -47.33190 | 32981 ft | 515 kts | 69° |
| 2026-05-04 07:43 | 52.66005 | -47.22125 | 33015 ft | 514 kts | 69° |
| 2026-05-04 07:43 | 52.68461 | -47.11051 | 32988 ft | 515 kts | 69° |
| 2026-05-04 07:44 | 52.70905 | -46.99975 | 32997 ft | 514 kts | 69° |
| 2026-05-04 07:44 | 52.73339 | -46.88883 | 32994 ft | 514 kts | 69° |
| 2026-05-04 07:45 | 52.75761 | -46.77791 | 33017 ft | 514 kts | 69° |
| 2026-05-04 07:45 | 52.78173 | -46.66681 | 33019 ft | 515 kts | 68° |